Česky Dansk Deutsch English Español Suomi Français Magyar Italiano Nederlands norsk Polski Português svenska Türkçe

 

Het Weer

Wunstorf (Duitsland)

19:20, 21 augustus 2016 (GMT)

NWNNE
WE
SWSSE
Home            
Wunstorf Hannover Bueckeburg Celle Bergen Braunschweig Fassberg Diepholz Bremen Lemwerder Guetersloh Paderborn / Lippstadt Kassel / Calden Muenster / Osnabrueck Hamburg-Finkenwerder Hopsten Hamburg-Fuhlsbuettel Rheine-Bentlage Meppen-Mil Fritzlar Nordhorn Magdeburg, Sachsen-Anhalt Nordholz

Om een weerknop op uw website of weblog te plaatsen, copieer onderstaande code en plak die in uw pagina. In het eerste vakje staat HTML-code, in het tweede vakje UBB-code.


Add to Google

Details

Wind speed:3 bf, 9 kn, 4.6 m/s, 10.4 miles/h, 16.7 km/h
Wind direction:SW, 230°
Visibility: 3200 m, 3.2 km, 10499 ft, 2.0 miles
Het Weer:moderate
moderate
moderate
Temperature:17°C, 63°F
Dew-point:13°C, 55°F
Atmospheric pressure:1019 hPa, 764.3 mmHg, 30.09 inHg, 1.006 atm
Relative humidity:77.3 %
METAR:ETNW 211920Z AUTO 23009KT 3200 17/13 Q1019

Snelkoppelingen

Actuele weersinformatie van de hele wereld. Voeg locaties toe met het plus (+) symbool. Deze snelkoppelingen kunnen worden toegevoegd aan Google.

Lid van de Technetium groep

website free tracking
StatCounter NetStat W3C Validator

18-08-2022 09:37:24
astro.technetium.be money.technetium.be phote.technetium.be tafeltennistafel.technetium.be www.ligfiets.net